Naval Base, Virginia
Current Conditions -  °F | °C
As of 5:59 AM on Monday 20 Oct 2014 (Local Time) from KNGU Reporting Station
Few Clouds Few Clouds  
Wind Chill: 47°   Ceiling: Unl
Heat Index: 49°   Visibility: 10mi
Dew Point: 44°   Wind: 5mph
Humidity: 83%   Direction: 200°SSW
Pressure: 30.15"   Gusts: NA
Location:  36.9343°N, 76.284°W
Report Text: KNGU 200959Z 20004KT 10SM FEW250 09/07 A3015 RMK AO2 SLP209 T00940067 $
Loading
Personal Weather Stations






























Interactive Weather Map
Tropical Storm Tracking
New forecast layout! Learn more

10-Day Weather Forecast

Advertisements
Track Severe Weather on mobile